Terminal Aerodrome Forecast
Issued by NWS Amarillo, TX

Home | Current Version | Previous Version | Text Only | Print | Product List | Glossary On
Versions: 1 2 3 4 5 6 7 8 9 10 11 12 13 14 15 16
000
FTUS44 KAMA 220500
TAFGUY
TAF
KGUY 220520Z 2206/2306 19008KT P6SM BKN100
     FM221000 21015KT P6SM SCT020 OVC080
     FM221700 20010KT P6SM VCSH OVC040=

USA.gov is the U.S. government's official web portal to all federal, state and local government web resources and services.